createdAt,value
2023-09-13T00:02:30.812Z,18.08
2023-09-13T00:05:03.895Z,18.07
2023-09-13T00:07:35.587Z,18.06
2023-09-13T00:10:09.098Z,18.05
2023-09-13T00:12:41.106Z,18.03
2023-09-13T00:15:13.384Z,18.00
2023-09-13T00:17:44.948Z,17.99
2023-09-13T00:20:16.873Z,17.98
2023-09-13T00:22:48.423Z,17.94
2023-09-13T00:25:20.175Z,17.88
2023-09-13T00:27:51.669Z,17.84
2023-09-13T00:30:23.009Z,17.80
2023-09-13T00:32:54.386Z,17.80
2023-09-13T00:35:25.892Z,17.81
2023-09-13T00:37:57.555Z,17.80
2023-09-13T00:40:28.930Z,17.79
2023-09-13T00:43:01.376Z,17.81
2023-09-13T00:45:34.805Z,17.83
2023-09-13T00:48:07.594Z,17.85
2023-09-13T00:50:51.280Z,17.86
2023-09-13T00:53:26.164Z,17.86
2023-09-13T00:55:58.019Z,17.85
2023-09-13T00:58:30.840Z,17.85
2023-09-13T01:01:02.294Z,17.84
2023-09-13T01:03:34.797Z,17.81
2023-09-13T01:06:07.255Z,17.79
2023-09-13T01:08:40.999Z,17.78
2023-09-13T01:11:13.081Z,17.80
2023-09-13T01:13:44.844Z,17.80
2023-09-13T01:16:24.021Z,17.82
2023-09-13T01:19:01.733Z,17.83
2023-09-13T01:21:59.837Z,17.84
2023-09-13T01:25:04.401Z,17.85
2023-09-13T01:27:49.662Z,17.84
2023-09-13T01:30:25.111Z,17.83
2023-09-13T01:32:57.406Z,17.82
2023-09-13T01:35:29.007Z,17.82
2023-09-13T01:38:00.627Z,17.83
2023-09-13T01:40:40.040Z,17.82
2023-09-13T01:43:12.349Z,17.82
2023-09-13T01:45:44.317Z,17.82
2023-09-13T01:48:18.895Z,17.79
2023-09-13T01:50:51.555Z,17.82
2023-09-13T01:53:23.161Z,17.82
2023-09-13T01:55:54.550Z,17.82
2023-09-13T01:58:25.866Z,17.79
2023-09-13T02:00:57.322Z,17.78
2023-09-13T02:03:28.730Z,17.78
2023-09-13T02:06:00.060Z,17.79
2023-09-13T02:08:31.571Z,17.74
2023-09-13T02:11:02.877Z,17.73
2023-09-13T02:13:34.279Z,17.73
2023-09-13T02:16:06.275Z,17.74
2023-09-13T02:18:37.839Z,17.73
2023-09-13T02:21:11.350Z,17.71
2023-09-13T02:23:43.894Z,17.69
2023-09-13T02:26:23.285Z,17.68
2023-09-13T02:28:55.386Z,17.70
2023-09-13T02:31:27.991Z,17.71
2023-09-13T02:33:59.385Z,17.71
2023-09-13T02:36:30.966Z,17.70
2023-09-13T02:39:03.012Z,17.68
2023-09-13T02:41:34.399Z,17.65
2023-09-13T02:44:06.412Z,17.62
2023-09-13T02:46:37.775Z,17.60
2023-09-13T02:49:09.361Z,17.61
2023-09-13T02:51:40.916Z,17.64
2023-09-13T02:54:12.307Z,17.67
2023-09-13T02:56:43.708Z,17.70
2023-09-13T02:59:15.146Z,17.74
2023-09-13T03:01:47.056Z,17.77
2023-09-13T03:04:18.954Z,17.78
2023-09-13T03:06:50.471Z,17.78
2023-09-13T03:09:21.995Z,17.78
2023-09-13T03:11:53.424Z,17.77
2023-09-13T03:14:24.866Z,17.76
2023-09-13T03:16:56.309Z,17.74
2023-09-13T03:19:27.822Z,17.76
2023-09-13T03:21:59.643Z,17.75
2023-09-13T03:24:31.467Z,17.75
2023-09-13T03:27:03.827Z,17.76
2023-09-13T03:29:37.577Z,17.77
2023-09-13T03:32:09.514Z,17.80
2023-09-13T03:34:41.123Z,17.80
2023-09-13T03:37:12.607Z,17.81
2023-09-13T03:39:44.039Z,17.79
2023-09-13T03:42:15.475Z,17.79
2023-09-13T03:44:46.998Z,17.81
2023-09-13T03:47:18.375Z,17.82
2023-09-13T03:49:49.768Z,17.83
2023-09-13T03:52:21.163Z,17.84
2023-09-13T03:54:52.610Z,17.84
2023-09-13T03:57:24.184Z,17.84
2023-09-13T03:59:55.492Z,17.85
2023-09-13T04:02:27.019Z,17.86
2023-09-13T04:04:58.475Z,17.85
2023-09-13T04:07:29.963Z,17.88
2023-09-13T04:10:01.454Z,17.90
2023-09-13T04:12:34.018Z,17.93
2023-09-13T04:15:10.310Z,17.93
2023-09-13T04:17:41.804Z,17.96
2023-09-13T04:20:14.208Z,17.97
2023-09-13T04:22:45.618Z,17.98
2023-09-13T04:25:17.226Z,17.98
2023-09-13T04:27:49.617Z,17.99
2023-09-13T04:30:21.278Z,18.00
2023-09-13T04:32:52.712Z,18.03
2023-09-13T04:35:24.233Z,18.04
2023-09-13T04:37:56.125Z,18.04
2023-09-13T04:40:27.584Z,18.05
2023-09-13T04:43:25.341Z,18.06
2023-09-13T04:45:56.824Z,18.05
2023-09-13T04:48:28.195Z,18.04
2023-09-13T04:50:59.533Z,18.04
2023-09-13T04:53:30.804Z,18.04
2023-09-13T04:56:02.973Z,18.04
2023-09-13T04:58:36.649Z,18.01
2023-09-13T05:01:09.934Z,18.01
2023-09-13T05:03:41.740Z,18.01
2023-09-13T05:06:14.380Z,18.03
2023-09-13T05:08:44.239Z,18.04
2023-09-13T05:11:15.622Z,18.06
2023-09-13T05:13:48.531Z,18.06
2023-09-13T05:16:21.491Z,18.09
2023-09-13T05:18:52.994Z,18.12
2023-09-13T05:21:24.312Z,18.15
2023-09-13T05:23:55.662Z,18.17
2023-09-13T05:26:26.952Z,18.18
2023-09-13T05:28:58.284Z,18.19
2023-09-13T05:31:29.763Z,18.17
2023-09-13T05:34:01.306Z,18.16
2023-09-13T05:36:32.687Z,18.15
2023-09-13T05:39:05.481Z,18.13
2023-09-13T05:41:38.646Z,18.16
2023-09-13T05:44:11.558Z,18.18
2023-09-13T05:46:42.977Z,18.18
2023-09-13T05:49:14.369Z,18.19
2023-09-13T05:51:46.858Z,18.20
2023-09-13T05:54:18.148Z,18.22
2023-09-13T05:56:49.582Z,18.22
2023-09-13T05:59:20.934Z,18.24
2023-09-13T06:01:52.454Z,18.27
2023-09-13T06:04:23.972Z,18.29
2023-09-13T06:06:55.449Z,18.31
2023-09-13T06:09:26.793Z,18.34
2023-09-13T06:11:58.741Z,18.36
2023-09-13T06:14:30.065Z,18.39
2023-09-13T06:17:01.450Z,18.37
2023-09-13T06:19:32.842Z,18.36
2023-09-13T06:22:04.507Z,18.36
2023-09-13T06:24:37.396Z,18.40
2023-09-13T06:27:08.898Z,18.44
2023-09-13T06:29:40.243Z,18.44
2023-09-13T06:32:27.340Z,18.45
2023-09-13T06:35:04.612Z,18.46
2023-09-13T06:37:38.366Z,18.47
2023-09-13T06:40:11.625Z,18.48
2023-09-13T06:45:26.435Z,18.47
2023-09-13T06:48:02.433Z,18.48
2023-09-13T06:51:09.945Z,18.48
2023-09-13T06:53:34.168Z,18.48
2023-09-13T06:56:10.429Z,18.52
2023-09-13T06:58:43.715Z,18.56
2023-09-13T07:01:35.294Z,18.59
2023-09-13T07:04:09.712Z,18.60
2023-09-13T07:06:44.668Z,18.62
2023-09-13T07:09:16.193Z,18.64
2023-09-13T07:11:47.496Z,18.68
2023-09-13T07:14:19.254Z,18.71
2023-09-13T07:16:50.674Z,18.71
2023-09-13T07:19:22.054Z,18.74
2023-09-13T07:21:53.348Z,18.76
2023-09-13T07:24:24.718Z,18.79
2023-09-13T07:26:56.346Z,18.84
2023-09-13T07:29:27.655Z,18.87
2023-09-13T07:31:58.980Z,18.91
2023-09-13T07:34:32.417Z,18.95
2023-09-13T07:37:05.308Z,19.00
2023-09-13T07:39:37.782Z,19.03
2023-09-13T07:42:08.101Z,19.06
2023-09-13T07:44:39.430Z,19.11
2023-09-13T07:47:10.884Z,19.13
2023-09-13T07:49:42.377Z,19.16
2023-09-13T07:52:14.704Z,19.17
2023-09-13T07:54:46.156Z,19.20
2023-09-13T07:57:17.533Z,19.20
2023-09-13T07:59:48.944Z,19.22
2023-09-13T08:02:20.208Z,19.26
2023-09-13T08:04:51.589Z,19.29
2023-09-13T08:07:23.157Z,19.32
2023-09-13T08:09:54.552Z,19.35
2023-09-13T08:12:25.978Z,19.39
2023-09-13T08:14:57.527Z,19.40
2023-09-13T08:17:28.950Z,19.41
2023-09-13T08:20:01.388Z,19.43
2023-09-13T08:22:39.842Z,19.44
2023-09-13T08:25:12.690Z,19.48
2023-09-13T08:27:44.595Z,19.51
2023-09-13T08:30:16.467Z,19.53
2023-09-13T08:32:47.940Z,19.56
2023-09-13T08:35:19.569Z,19.58
2023-09-13T08:37:50.938Z,19.60
2023-09-13T08:40:22.899Z,19.60
2023-09-13T08:42:55.005Z,19.61
2023-09-13T08:45:26.626Z,19.63
2023-09-13T08:48:02.737Z,19.65
2023-09-13T08:50:35.556Z,19.68
2023-09-13T08:53:09.950Z,19.70
2023-09-13T08:55:42.774Z,19.72
2023-09-13T08:58:14.194Z,19.73
2023-09-13T09:00:47.925Z,19.73
2023-09-13T09:03:22.946Z,19.75
2023-09-13T09:05:55.426Z,19.75
2023-09-13T09:08:28.960Z,19.77
2023-09-13T09:11:01.315Z,19.75
2023-09-13T09:13:32.163Z,19.78
2023-09-13T09:16:05.473Z,19.79
2023-09-13T09:18:40.703Z,19.79
2023-09-13T09:21:13.140Z,19.79
2023-09-13T09:23:43.893Z,19.78
2023-09-13T09:26:15.520Z,19.78
2023-09-13T09:28:49.078Z,19.77
2023-09-13T09:31:25.670Z,19.78
2023-09-13T09:34:06.214Z,19.82
2023-09-13T09:36:43.867Z,19.84
2023-09-13T09:39:16.855Z,19.89
2023-09-13T09:41:49.027Z,19.91
2023-09-13T09:44:22.129Z,19.95
2023-09-13T09:46:53.619Z,19.98
2023-09-13T09:49:25.441Z,20.00
2023-09-13T09:51:57.187Z,20.04
2023-09-13T09:54:28.709Z,20.07
2023-09-13T09:57:00.083Z,20.13
2023-09-13T09:59:32.719Z,20.17
2023-09-13T10:02:05.318Z,20.23
2023-09-13T10:04:47.925Z,20.29
2023-09-13T10:07:19.385Z,20.36
2023-09-13T10:09:50.980Z,20.42
2023-09-13T10:12:22.365Z,20.48
2023-09-13T10:14:54.983Z,20.54
2023-09-13T10:17:28.161Z,20.55
2023-09-13T10:20:00.034Z,20.62
2023-09-13T10:22:35.181Z,20.68
2023-09-13T10:25:12.463Z,20.76
2023-09-13T10:27:45.462Z,20.82
2023-09-13T10:30:22.848Z,20.89
2023-09-13T10:32:59.656Z,20.95
2023-09-13T10:35:34.237Z,21.04
2023-09-13T10:38:25.669Z,21.08
2023-09-13T10:41:04.843Z,21.13
2023-09-13T10:43:37.220Z,21.16
2023-09-13T10:46:09.391Z,21.20
2023-09-13T10:48:44.101Z,21.24
2023-09-13T10:51:17.317Z,21.27
2023-09-13T10:53:49.610Z,21.28
2023-09-13T10:56:20.355Z,21.33
2023-09-13T10:58:53.732Z,21.37
2023-09-13T11:01:26.917Z,21.39
2023-09-13T11:03:58.809Z,21.43
2023-09-13T11:06:32.183Z,21.45
2023-09-13T11:09:16.006Z,21.47
2023-09-13T11:11:53.207Z,21.47
2023-09-13T11:14:28.612Z,21.45
2023-09-13T11:17:12.518Z,21.43
2023-09-13T11:19:45.974Z,21.41
2023-09-13T11:22:43.508Z,21.39
2023-09-13T11:25:29.530Z,21.37
2023-09-13T11:28:04.992Z,21.37
2023-09-13T11:30:51.639Z,21.39
2023-09-13T11:33:23.594Z,21.41
2023-09-13T11:35:55.892Z,21.40
2023-09-13T11:38:26.367Z,21.42
2023-09-13T11:40:58.280Z,21.44
2023-09-13T11:43:33.733Z,21.45
2023-09-13T11:46:07.284Z,21.46
2023-09-13T11:48:56.748Z,21.48
2023-09-13T11:54:19.663Z,21.52
2023-09-13T11:57:05.788Z,21.54
2023-09-13T11:59:44.956Z,21.56
2023-09-13T12:02:19.258Z,21.58
2023-09-13T12:04:57.119Z,21.62
2023-09-13T12:07:35.989Z,21.65
2023-09-13T12:10:11.601Z,21.71
2023-09-13T12:12:50.696Z,21.77
2023-09-13T12:18:06.405Z,21.88
2023-09-13T12:20:37.814Z,21.92
2023-09-13T12:23:09.202Z,21.97
2023-09-13T12:25:40.987Z,22.03
2023-09-13T12:28:12.311Z,22.07
2023-09-13T12:30:43.706Z,22.11
2023-09-13T12:33:15.360Z,22.13
2023-09-13T12:35:47.187Z,22.15
2023-09-13T12:38:20.516Z,22.17
2023-09-13T12:40:55.525Z,22.20
2023-09-13T12:43:30.687Z,22.23
2023-09-13T12:46:04.138Z,22.26
2023-09-13T12:48:35.972Z,22.29
2023-09-13T12:51:08.220Z,22.32
2023-09-13T12:53:39.778Z,22.34
2023-09-13T12:56:13.952Z,22.36
2023-09-13T12:58:53.286Z,22.38
2023-09-13T13:01:25.652Z,22.41
2023-09-13T13:04:07.559Z,22.45
2023-09-13T13:06:59.062Z,22.48
2023-09-13T13:09:30.593Z,22.52
2023-09-13T13:12:02.173Z,22.53
2023-09-13T13:14:33.579Z,22.55
2023-09-13T13:17:05.240Z,22.58
2023-09-13T13:19:55.224Z,22.62
2023-09-13T13:22:32.583Z,22.68
2023-09-13T13:25:04.925Z,22.70
2023-09-13T13:27:35.129Z,22.70
2023-09-13T13:30:08.942Z,22.68
2023-09-13T13:32:40.541Z,22.66
2023-09-13T13:35:12.198Z,22.64
2023-09-13T13:37:49.611Z,22.62
2023-09-13T13:40:21.234Z,22.55
2023-09-13T13:42:52.691Z,22.54
2023-09-13T13:45:24.320Z,22.51
2023-09-13T13:47:55.961Z,22.48
2023-09-13T13:50:27.664Z,22.45
2023-09-13T13:53:00.589Z,22.40
2023-09-13T13:55:32.077Z,22.36
2023-09-13T13:58:04.036Z,22.33
2023-09-13T14:00:35.573Z,22.30
2023-09-13T14:03:07.646Z,22.31
2023-09-13T14:05:41.765Z,22.27
2023-09-13T14:08:14.038Z,22.27
2023-09-13T14:10:43.920Z,22.30
2023-09-13T14:13:16.377Z,22.33
2023-09-13T14:15:48.532Z,22.37
2023-09-13T14:18:20.044Z,22.40
2023-09-13T14:20:51.541Z,22.42
2023-09-13T14:23:23.869Z,22.45
2023-09-13T14:25:53.664Z,22.46
2023-09-13T14:28:25.045Z,22.47
2023-09-13T14:30:59.717Z,22.49
2023-09-13T14:33:33.482Z,22.52
2023-09-13T14:36:05.312Z,22.55
2023-09-13T14:38:36.756Z,22.59
2023-09-13T14:41:08.199Z,22.61
2023-09-13T14:43:39.871Z,22.62
2023-09-13T14:46:11.514Z,22.63
2023-09-13T14:48:43.934Z,22.61
2023-09-13T14:51:15.907Z,22.60
2023-09-13T14:53:47.424Z,22.59
2023-09-13T14:56:18.817Z,22.57
2023-09-13T14:58:50.114Z,22.54
2023-09-13T15:01:22.801Z,22.52
2023-09-13T15:03:54.292Z,22.50
2023-09-13T15:06:26.111Z,22.50
2023-09-13T15:08:59.145Z,22.51
2023-09-13T15:11:30.524Z,22.51
2023-09-13T15:14:03.841Z,22.53
2023-09-13T15:16:35.388Z,22.50
2023-09-13T15:19:07.007Z,22.52
2023-09-13T15:21:38.959Z,22.51
2023-09-13T15:24:10.506Z,22.50
2023-09-13T15:26:41.848Z,22.46
2023-09-13T15:29:13.576Z,22.42
2023-09-13T15:32:10.588Z,22.32
2023-09-13T15:34:36.313Z,22.18
2023-09-13T15:37:07.937Z,22.04
2023-09-13T15:39:42.655Z,21.87
2023-09-13T15:42:14.167Z,21.69
2023-09-13T15:44:45.701Z,21.50
2023-09-13T15:47:17.022Z,21.37
2023-09-13T15:49:48.351Z,21.23
2023-09-13T15:52:19.790Z,21.09
2023-09-13T15:54:51.154Z,20.99
2023-09-13T15:57:22.597Z,20.89
2023-09-13T15:59:54.129Z,20.80
2023-09-13T16:02:25.750Z,20.72
2023-09-13T16:04:58.012Z,20.63
2023-09-13T16:07:31.552Z,20.54
2023-09-13T16:10:03.009Z,20.41
2023-09-13T16:12:35.145Z,20.32
2023-09-13T16:15:08.607Z,20.21
2023-09-13T16:17:40.245Z,20.12
2023-09-13T16:20:13.449Z,20.03
2023-09-13T16:22:44.934Z,19.95
2023-09-13T16:25:17.931Z,19.84
2023-09-13T16:27:49.409Z,19.72
2023-09-13T16:30:21.059Z,19.61
2023-09-13T16:32:55.647Z,19.51
2023-09-13T16:35:27.167Z,19.41
2023-09-13T16:37:58.690Z,19.33
2023-09-13T16:40:30.136Z,19.24
2023-09-13T16:43:01.754Z,19.16
2023-09-13T16:45:33.247Z,19.10
2023-09-13T16:48:13.455Z,19.01
2023-09-13T16:50:51.425Z,18.94
2023-09-13T16:53:23.444Z,18.88
2023-09-13T16:55:54.762Z,18.87
2023-09-13T16:58:26.205Z,18.82
2023-09-13T17:00:58.417Z,18.76
2023-09-13T17:03:30.361Z,18.70
2023-09-13T17:06:02.082Z,18.65
2023-09-13T17:08:35.301Z,18.62
2023-09-13T17:11:09.590Z,18.57
2023-09-13T17:13:41.807Z,18.56
2023-09-13T17:16:13.328Z,18.54
2023-09-13T17:18:44.788Z,18.50
2023-09-13T17:21:16.673Z,18.45
2023-09-13T17:23:48.059Z,18.41
2023-09-13T17:26:19.517Z,18.37
2023-09-13T17:28:50.824Z,18.33
2023-09-13T17:31:22.302Z,18.26
2023-09-13T17:33:53.770Z,18.21
2023-09-13T17:36:39.952Z,18.19
2023-09-13T17:39:13.520Z,18.15
2023-09-13T17:41:46.961Z,18.11
2023-09-13T17:44:19.372Z,18.07
2023-09-13T17:46:53.214Z,18.03
2023-09-13T17:49:25.939Z,17.99
2023-09-13T17:51:58.722Z,17.92
2023-09-13T17:54:31.383Z,17.87
2023-09-13T17:57:04.467Z,17.82
2023-09-13T17:59:37.094Z,17.81
2023-09-13T18:02:12.379Z,17.79
2023-09-13T18:04:45.648Z,17.77
2023-09-13T18:07:18.563Z,17.75
2023-09-13T18:09:50.668Z,17.73
2023-09-13T18:12:25.186Z,17.69
2023-09-13T18:14:58.681Z,17.65
2023-09-13T18:17:48.715Z,17.60
2023-09-13T18:20:29.343Z,17.55
2023-09-13T18:23:02.143Z,17.52
2023-09-13T18:25:36.747Z,17.44
2023-09-13T18:28:11.343Z,17.39
2023-09-13T18:30:43.274Z,17.39
2023-09-13T18:33:16.361Z,17.36
2023-09-13T18:35:50.369Z,17.33
2023-09-13T18:38:21.837Z,17.31
2023-09-13T18:41:01.309Z,17.25
2023-09-13T18:43:38.462Z,17.19
2023-09-13T18:46:13.151Z,17.12
2023-09-13T18:48:47.905Z,17.05
2023-09-13T18:51:25.278Z,16.99
2023-09-13T18:54:04.547Z,16.94
2023-09-13T18:56:42.030Z,16.89
2023-09-13T18:59:15.770Z,16.89
2023-09-13T19:01:49.602Z,16.86
2023-09-13T19:04:23.167Z,16.83
2023-09-13T19:07:08.339Z,16.81
2023-09-13T19:09:44.587Z,16.78
2023-09-13T19:12:16.107Z,16.72
2023-09-13T19:14:47.586Z,16.71
2023-09-13T19:17:18.982Z,16.67
2023-09-13T19:19:52.539Z,16.64
2023-09-13T19:22:25.479Z,16.62
2023-09-13T19:24:59.470Z,16.63
2023-09-13T19:27:32.687Z,16.62
2023-09-13T19:30:12.168Z,16.59
2023-09-13T19:32:45.051Z,16.58
2023-09-13T19:35:18.327Z,16.54
2023-09-13T19:37:53.414Z,16.51
2023-09-13T19:40:26.908Z,16.46
2023-09-13T19:42:59.912Z,16.43
2023-09-13T19:45:35.343Z,16.40
2023-09-13T19:48:09.337Z,16.39
2023-09-13T19:50:49.334Z,16.39
2023-09-13T19:53:22.416Z,16.37
2023-09-13T19:55:59.248Z,16.36
2023-09-13T19:58:36.786Z,16.35
2023-09-13T20:01:09.471Z,16.33
2023-09-13T20:03:43.877Z,16.31
2023-09-13T20:06:17.678Z,16.29
2023-09-13T20:08:49.356Z,16.32
2023-09-13T20:11:22.244Z,16.31
2023-09-13T20:13:55.518Z,16.29
2023-09-13T20:16:28.829Z,16.27
2023-09-13T20:19:00.350Z,16.26
2023-09-13T20:21:31.816Z,16.25
2023-09-13T20:24:03.106Z,16.23
2023-09-13T20:26:34.443Z,16.20
2023-09-13T20:29:06.578Z,16.19
2023-09-13T20:31:37.884Z,16.17
2023-09-13T20:34:09.512Z,16.16
2023-09-13T20:36:40.938Z,16.15
2023-09-13T20:39:13.491Z,16.13
2023-09-13T20:41:45.795Z,16.12
2023-09-13T20:44:17.264Z,16.10
2023-09-13T20:46:48.691Z,16.08
2023-09-13T20:49:20.238Z,16.05
2023-09-13T20:51:57.362Z,16.03
2023-09-13T20:54:29.531Z,16.02
2023-09-13T20:57:01.076Z,16.00
2023-09-13T20:59:32.359Z,15.97
2023-09-13T21:02:04.607Z,15.94
2023-09-13T21:04:36.068Z,15.91
2023-09-13T21:07:08.544Z,15.88
2023-09-13T21:09:39.946Z,15.80
2023-09-13T21:12:12.765Z,15.78
2023-09-13T21:14:44.644Z,15.73
2023-09-13T21:17:16.014Z,15.70
2023-09-13T21:19:47.734Z,15.65
2023-09-13T21:22:19.054Z,15.61
2023-09-13T21:24:50.498Z,15.54
2023-09-13T21:27:22.760Z,15.48
2023-09-13T21:29:54.096Z,15.42
2023-09-13T21:32:25.556Z,15.35
2023-09-13T21:35:02.442Z,15.28
2023-09-13T21:37:35.361Z,15.25
2023-09-13T21:40:08.744Z,15.19
2023-09-13T21:42:40.150Z,15.13
2023-09-13T21:45:13.554Z,15.09
2023-09-13T21:47:44.994Z,15.04
2023-09-13T21:50:16.493Z,14.99
2023-09-13T21:52:48.173Z,14.93
2023-09-13T21:55:20.189Z,14.88
2023-09-13T21:57:51.696Z,14.84
2023-09-13T22:00:23.268Z,14.79
2023-09-13T22:02:55.834Z,14.73
2023-09-13T22:05:27.702Z,14.69
2023-09-13T22:07:59.199Z,14.63
2023-09-13T22:10:30.704Z,14.61
2023-09-13T22:13:03.445Z,14.57
2023-09-13T22:15:35.125Z,14.55
2023-09-13T22:18:08.003Z,14.52
2023-09-13T22:20:39.735Z,14.49
2023-09-13T22:23:11.311Z,14.46
2023-09-13T22:25:42.846Z,14.45
2023-09-13T22:28:14.407Z,14.42
2023-09-13T22:30:45.994Z,14.39
2023-09-13T22:33:17.377Z,14.38
2023-09-13T22:35:48.860Z,14.35
2023-09-13T22:38:20.306Z,14.33
2023-09-13T22:40:51.879Z,14.29
2023-09-13T22:43:23.711Z,14.25
2023-09-13T22:45:55.776Z,14.20
2023-09-13T22:48:28.003Z,14.16
2023-09-13T22:51:00.094Z,14.14
2023-09-13T22:53:31.657Z,14.14
2023-09-13T22:56:03.151Z,14.11
2023-09-13T22:58:34.617Z,14.07
2023-09-13T23:01:12.272Z,14.00
2023-09-13T23:03:46.150Z,13.99
2023-09-13T23:06:19.926Z,13.97
2023-09-13T23:08:51.534Z,13.98
2023-09-13T23:11:23.855Z,13.97
2023-09-13T23:14:00.079Z,13.97
2023-09-13T23:16:32.274Z,13.95
2023-09-13T23:19:04.499Z,13.94
2023-09-13T23:21:35.933Z,13.91
2023-09-13T23:24:13.656Z,13.89
2023-09-13T23:26:45.833Z,13.89
2023-09-13T23:29:17.161Z,13.91
2023-09-13T23:31:49.198Z,13.86
2023-09-13T23:34:21.041Z,13.84
2023-09-13T23:36:52.985Z,13.83
2023-09-13T23:39:24.374Z,13.82
2023-09-13T23:41:55.612Z,13.81
2023-09-13T23:44:26.866Z,13.81
2023-09-13T23:46:59.026Z,13.82
2023-09-13T23:49:30.901Z,13.81
2023-09-13T23:52:02.278Z,13.80
2023-09-13T23:54:33.866Z,13.78
2023-09-13T23:57:05.560Z,13.76
2023-09-13T23:59:37.020Z,13.74
